sensor_id;sensor_type;location;lat;lon;timestamp;temperature;humidity
25906;DHT22;13713;52.552;13.204;2022-08-19T00:00:17;28.70;56.70
25906;DHT22;13713;52.552;13.204;2022-08-19T00:02:43;28.70;56.70
25906;DHT22;13713;52.552;13.204;2022-08-19T00:05:10;28.70;56.80
25906;DHT22;13713;52.552;13.204;2022-08-19T00:07:36;28.60;56.70
25906;DHT22;13713;52.552;13.204;2022-08-19T00:10:07;28.70;56.70
25906;DHT22;13713;52.552;13.204;2022-08-19T00:12:34;28.80;56.80
25906;DHT22;13713;52.552;13.204;2022-08-19T00:14:59;28.70;56.90
25906;DHT22;13713;52.552;13.204;2022-08-19T00:17:25;28.70;56.80
25906;DHT22;13713;52.552;13.204;2022-08-19T00:19:51;28.70;56.80
25906;DHT22;13713;52.552;13.204;2022-08-19T00:22:17;28.70;56.90
25906;DHT22;13713;52.552;13.204;2022-08-19T00:24:44;28.70;56.90
25906;DHT22;13713;52.552;13.204;2022-08-19T00:27:11;28.80;57.00
25906;DHT22;13713;52.552;13.204;2022-08-19T00:29:37;28.70;56.90
25906;DHT22;13713;52.552;13.204;2022-08-19T00:32:04;28.70;57.50
25906;DHT22;13713;52.552;13.204;2022-08-19T00:34:29;28.70;56.90
25906;DHT22;13713;52.552;13.204;2022-08-19T00:36:56;28.70;57.00
25906;DHT22;13713;52.552;13.204;2022-08-19T00:39:22;28.70;57.10
25906;DHT22;13713;52.552;13.204;2022-08-19T00:41:48;28.70;57.00
25906;DHT22;13713;52.552;13.204;2022-08-19T00:44:21;28.70;57.00
25906;DHT22;13713;52.552;13.204;2022-08-19T00:46:50;28.70;57.10
25906;DHT22;13713;52.552;13.204;2022-08-19T00:49:22;28.70;57.10
25906;DHT22;13713;52.552;13.204;2022-08-19T00:51:51;28.60;57.00
25906;DHT22;13713;52.552;13.204;2022-08-19T00:54:19;28.60;57.10
25906;DHT22;13713;52.552;13.204;2022-08-19T00:56:45;28.70;57.10
25906;DHT22;13713;52.552;13.204;2022-08-19T00:59:11;28.60;57.00
25906;DHT22;13713;52.552;13.204;2022-08-19T01:01:40;28.60;57.00
25906;DHT22;13713;52.552;13.204;2022-08-19T01:04:07;28.70;57.10
25906;DHT22;13713;52.552;13.204;2022-08-19T01:06:33;28.60;57.00
25906;DHT22;13713;52.552;13.204;2022-08-19T01:09:00;28.60;57.00
25906;DHT22;13713;52.552;13.204;2022-08-19T01:11:27;28.60;57.20
25906;DHT22;13713;52.552;13.204;2022-08-19T01:13:54;28.60;57.10
25906;DHT22;13713;52.552;13.204;2022-08-19T01:16:22;28.70;57.30
25906;DHT22;13713;52.552;13.204;2022-08-19T01:18:49;28.60;57.20
25906;DHT22;13713;52.552;13.204;2022-08-19T01:21:22;28.60;57.20
25906;DHT22;13713;52.552;13.204;2022-08-19T01:23:50;28.60;57.20
25906;DHT22;13713;52.552;13.204;2022-08-19T01:26:19;28.60;57.20
25906;DHT22;13713;52.552;13.204;2022-08-19T01:28:47;28.70;57.30
25906;DHT22;13713;52.552;13.204;2022-08-19T01:31:17;28.60;57.30
25906;DHT22;13713;52.552;13.204;2022-08-19T01:33:44;28.70;57.30
25906;DHT22;13713;52.552;13.204;2022-08-19T01:36:23;28.60;57.20
25906;DHT22;13713;52.552;13.204;2022-08-19T01:38:51;28.60;57.30
25906;DHT22;13713;52.552;13.204;2022-08-19T01:41:18;28.60;57.40
25906;DHT22;13713;52.552;13.204;2022-08-19T01:43:44;28.60;57.40
25906;DHT22;13713;52.552;13.204;2022-08-19T01:46:10;28.60;57.30
25906;DHT22;13713;52.552;13.204;2022-08-19T01:48:39;28.60;57.40
25906;DHT22;13713;52.552;13.204;2022-08-19T01:51:06;28.60;57.40
25906;DHT22;13713;52.552;13.204;2022-08-19T01:53:32;28.60;57.30
25906;DHT22;13713;52.552;13.204;2022-08-19T01:55:58;28.60;57.40
25906;DHT22;13713;52.552;13.204;2022-08-19T01:58:29;28.60;57.50
25906;DHT22;13713;52.552;13.204;2022-08-19T02:00:56;28.60;57.50
25906;DHT22;13713;52.552;13.204;2022-08-19T02:03:22;28.60;57.40
25906;DHT22;13713;52.552;13.204;2022-08-19T02:05:54;28.60;57.40
25906;DHT22;13713;52.552;13.204;2022-08-19T02:08:20;28.60;57.40
25906;DHT22;13713;52.552;13.204;2022-08-19T02:10:46;28.50;57.30
25906;DHT22;13713;52.552;13.204;2022-08-19T02:13:12;28.60;57.50
25906;DHT22;13713;52.552;13.204;2022-08-19T02:15:38;28.60;57.60
25906;DHT22;13713;52.552;13.204;2022-08-19T02:18:04;28.60;57.50
25906;DHT22;13713;52.552;13.204;2022-08-19T02:20:30;28.50;57.60
25906;DHT22;13713;52.552;13.204;2022-08-19T02:22:56;28.50;57.50
25906;DHT22;13713;52.552;13.204;2022-08-19T02:25:22;28.60;57.50
25906;DHT22;13713;52.552;13.204;2022-08-19T02:27:47;28.50;57.50
25906;DHT22;13713;52.552;13.204;2022-08-19T02:30:15;28.50;57.60
25906;DHT22;13713;52.552;13.204;2022-08-19T02:32:42;28.50;57.60
25906;DHT22;13713;52.552;13.204;2022-08-19T02:35:08;28.50;57.60
25906;DHT22;13713;52.552;13.204;2022-08-19T02:37:34;28.50;57.60
25906;DHT22;13713;52.552;13.204;2022-08-19T02:40:18;28.50;57.50
25906;DHT22;13713;52.552;13.204;2022-08-19T02:42:45;28.50;57.50
25906;DHT22;13713;52.552;13.204;2022-08-19T02:45:12;28.50;57.70
25906;DHT22;13713;52.552;13.204;2022-08-19T02:47:39;28.50;57.60
25906;DHT22;13713;52.552;13.204;2022-08-19T02:50:05;28.50;57.70
25906;DHT22;13713;52.552;13.204;2022-08-19T02:52:32;28.50;57.60
25906;DHT22;13713;52.552;13.204;2022-08-19T02:54:58;28.50;57.60
25906;DHT22;13713;52.552;13.204;2022-08-19T02:57:25;28.50;57.60
25906;DHT22;13713;52.552;13.204;2022-08-19T02:59:52;28.50;57.70
25906;DHT22;13713;52.552;13.204;2022-08-19T03:02:18;28.50;57.60
25906;DHT22;13713;52.552;13.204;2022-08-19T03:04:43;28.50;57.70
25906;DHT22;13713;52.552;13.204;2022-08-19T03:07:13;28.50;57.70
25906;DHT22;13713;52.552;13.204;2022-08-19T03:09:39;28.50;57.70
25906;DHT22;13713;52.552;13.204;2022-08-19T03:12:05;28.50;57.70
25906;DHT22;13713;52.552;13.204;2022-08-19T03:14:32;28.50;57.60
25906;DHT22;13713;52.552;13.204;2022-08-19T03:16:59;28.40;57.60
25906;DHT22;13713;52.552;13.204;2022-08-19T03:19:24;28.50;57.70
25906;DHT22;13713;52.552;13.204;2022-08-19T03:21:51;28.50;57.80
25906;DHT22;13713;52.552;13.204;2022-08-19T03:24:18;28.50;57.90
25906;DHT22;13713;52.552;13.204;2022-08-19T03:26:49;28.40;57.60
25906;DHT22;13713;52.552;13.204;2022-08-19T03:29:17;28.40;57.60
25906;DHT22;13713;52.552;13.204;2022-08-19T03:31:46;28.50;57.60
25906;DHT22;13713;52.552;13.204;2022-08-19T03:34:24;28.50;57.60
25906;DHT22;13713;52.552;13.204;2022-08-19T03:36:54;28.50;57.70
25906;DHT22;13713;52.552;13.204;2022-08-19T03:39:21;28.40;57.70
25906;DHT22;13713;52.552;13.204;2022-08-19T03:41:49;28.40;57.60
25906;DHT22;13713;52.552;13.204;2022-08-19T03:44:19;28.40;57.60
25906;DHT22;13713;52.552;13.204;2022-08-19T03:46:52;28.40;57.60
25906;DHT22;13713;52.552;13.204;2022-08-19T03:49:20;28.40;57.60
25906;DHT22;13713;52.552;13.204;2022-08-19T03:51:47;28.40;57.60
25906;DHT22;13713;52.552;13.204;2022-08-19T03:54:15;28.40;57.60
25906;DHT22;13713;52.552;13.204;2022-08-19T03:56:42;28.50;57.70
25906;DHT22;13713;52.552;13.204;2022-08-19T03:59:14;28.40;57.70
25906;DHT22;13713;52.552;13.204;2022-08-19T04:01:40;28.40;58.10
25906;DHT22;13713;52.552;13.204;2022-08-19T04:04:06;28.30;59.10
25906;DHT22;13713;52.552;13.204;2022-08-19T04:06:34;28.30;58.70
25906;DHT22;13713;52.552;13.204;2022-08-19T04:09:04;28.30;59.80
25906;DHT22;13713;52.552;13.204;2022-08-19T04:11:47;28.20;60.40
25906;DHT22;13713;52.552;13.204;2022-08-19T04:14:19;28.10;60.20
25906;DHT22;13713;52.552;13.204;2022-08-19T04:16:46;28.10;61.50
25906;DHT22;13713;52.552;13.204;2022-08-19T04:19:13;28.00;61.40
25906;DHT22;13713;52.552;13.204;2022-08-19T04:21:40;28.00;60.60
25906;DHT22;13713;52.552;13.204;2022-08-19T04:24:06;27.90;60.70
25906;DHT22;13713;52.552;13.204;2022-08-19T04:26:34;27.90;61.10
25906;DHT22;13713;52.552;13.204;2022-08-19T04:29:11;27.80;61.50
25906;DHT22;13713;52.552;13.204;2022-08-19T04:31:37;27.80;61.90
25906;DHT22;13713;52.552;13.204;2022-08-19T04:34:05;27.70;62.60
25906;DHT22;13713;52.552;13.204;2022-08-19T04:36:34;27.60;62.50
25906;DHT22;13713;52.552;13.204;2022-08-19T04:39:04;27.50;62.80
25906;DHT22;13713;52.552;13.204;2022-08-19T04:41:29;27.50;63.20
25906;DHT22;13713;52.552;13.204;2022-08-19T04:44:14;27.50;62.30
25906;DHT22;13713;52.552;13.204;2022-08-19T04:46:47;27.40;62.90
25906;DHT22;13713;52.552;13.204;2022-08-19T04:49:19;27.40;62.70
25906;DHT22;13713;52.552;13.204;2022-08-19T04:51:48;27.40;63.20
25906;DHT22;13713;52.552;13.204;2022-08-19T04:54:16;27.30;64.00
25906;DHT22;13713;52.552;13.204;2022-08-19T04:56:42;27.20;63.70
25906;DHT22;13713;52.552;13.204;2022-08-19T04:59:09;27.10;64.30
25906;DHT22;13713;52.552;13.204;2022-08-19T05:01:36;27.10;64.40
25906;DHT22;13713;52.552;13.204;2022-08-19T05:04:04;27.00;64.40
25906;DHT22;13713;52.552;13.204;2022-08-19T05:06:32;27.00;65.30
25906;DHT22;13713;52.552;13.204;2022-08-19T05:09:04;26.90;65.80
25906;DHT22;13713;52.552;13.204;2022-08-19T05:11:33;26.90;65.60
25906;DHT22;13713;52.552;13.204;2022-08-19T05:14:00;26.90;66.10
25906;DHT22;13713;52.552;13.204;2022-08-19T05:16:27;26.90;65.80
25906;DHT22;13713;52.552;13.204;2022-08-19T05:18:53;26.80;65.40
25906;DHT22;13713;52.552;13.204;2022-08-19T05:21:39;26.80;66.00
25906;DHT22;13713;52.552;13.204;2022-08-19T05:24:24;26.80;66.50
25906;DHT22;13713;52.552;13.204;2022-08-19T05:26:51;26.70;66.30
25906;DHT22;13713;52.552;13.204;2022-08-19T05:29:21;26.70;66.70
25906;DHT22;13713;52.552;13.204;2022-08-19T05:31:48;26.70;66.80
25906;DHT22;13713;52.552;13.204;2022-08-19T05:34:18;26.70;66.40
25906;DHT22;13713;52.552;13.204;2022-08-19T05:36:47;26.60;66.60
25906;DHT22;13713;52.552;13.204;2022-08-19T05:39:16;26.60;66.70
25906;DHT22;13713;52.552;13.204;2022-08-19T05:41:47;26.60;67.20
25906;DHT22;13713;52.552;13.204;2022-08-19T05:44:14;26.60;66.70
25906;DHT22;13713;52.552;13.204;2022-08-19T05:46:43;26.60;67.00
25906;DHT22;13713;52.552;13.204;2022-08-19T05:49:09;26.60;66.70
25906;DHT22;13713;52.552;13.204;2022-08-19T05:51:36;26.60;67.00
25906;DHT22;13713;52.552;13.204;2022-08-19T05:54:05;26.60;67.20
25906;DHT22;13713;52.552;13.204;2022-08-19T05:56:33;26.60;68.10
25906;DHT22;13713;52.552;13.204;2022-08-19T05:59:02;26.60;67.90
25906;DHT22;13713;52.552;13.204;2022-08-19T06:01:28;26.60;68.70
25906;DHT22;13713;52.552;13.204;2022-08-19T06:03:53;26.60;68.00
25906;DHT22;13713;52.552;13.204;2022-08-19T06:06:21;26.60;68.60
25906;DHT22;13713;52.552;13.204;2022-08-19T06:08:47;26.60;68.10
25906;DHT22;13713;52.552;13.204;2022-08-19T06:11:24;26.60;67.40
25906;DHT22;13713;52.552;13.204;2022-08-19T06:13:53;26.60;68.60
25906;DHT22;13713;52.552;13.204;2022-08-19T06:16:20;26.60;68.90
25906;DHT22;13713;52.552;13.204;2022-08-19T06:18:52;26.60;69.00
25906;DHT22;13713;52.552;13.204;2022-08-19T06:21:23;26.60;68.50
25906;DHT22;13713;52.552;13.204;2022-08-19T06:23:49;26.50;69.70
25906;DHT22;13713;52.552;13.204;2022-08-19T06:26:17;26.50;69.70
25906;DHT22;13713;52.552;13.204;2022-08-19T06:28:43;26.50;70.10
25906;DHT22;13713;52.552;13.204;2022-08-19T06:31:22;26.50;69.70
25906;DHT22;13713;52.552;13.204;2022-08-19T06:33:49;26.50;70.30
25906;DHT22;13713;52.552;13.204;2022-08-19T06:36:22;26.50;70.40
25906;DHT22;13713;52.552;13.204;2022-08-19T06:38:53;26.50;69.80
25906;DHT22;13713;52.552;13.204;2022-08-19T06:41:19;26.50;70.40
25906;DHT22;13713;52.552;13.204;2022-08-19T06:43:45;26.50;70.10
25906;DHT22;13713;52.552;13.204;2022-08-19T06:46:15;26.30;70.70
25906;DHT22;13713;52.552;13.204;2022-08-19T06:48:41;26.40;70.70
25906;DHT22;13713;52.552;13.204;2022-08-19T06:51:07;26.40;71.10
25906;DHT22;13713;52.552;13.204;2022-08-19T06:53:33;26.40;71.10
25906;DHT22;13713;52.552;13.204;2022-08-19T06:55:59;26.50;71.10
25906;DHT22;13713;52.552;13.204;2022-08-19T06:58:31;26.40;71.70
25906;DHT22;13713;52.552;13.204;2022-08-19T07:01:02;26.40;70.50
25906;DHT22;13713;52.552;13.204;2022-08-19T07:03:33;26.30;71.70
25906;DHT22;13713;52.552;13.204;2022-08-19T07:06:07;26.30;70.90
25906;DHT22;13713;52.552;13.204;2022-08-19T07:08:34;26.30;70.60
25906;DHT22;13713;52.552;13.204;2022-08-19T07:11:06;26.30;71.80
25906;DHT22;13713;52.552;13.204;2022-08-19T07:13:33;26.30;71.70
25906;DHT22;13713;52.552;13.204;2022-08-19T07:16:10;26.30;72.60
25906;DHT22;13713;52.552;13.204;2022-08-19T07:18:36;26.30;72.20
25906;DHT22;13713;52.552;13.204;2022-08-19T07:21:32;26.20;73.30
25906;DHT22;13713;52.552;13.204;2022-08-19T07:23:59;26.10;73.30
25906;DHT22;13713;52.552;13.204;2022-08-19T07:26:28;26.10;75.10
25906;DHT22;13713;52.552;13.204;2022-08-19T07:28:56;26.10;72.80
25906;DHT22;13713;52.552;13.204;2022-08-19T07:31:25;26.10;73.30
25906;DHT22;13713;52.552;13.204;2022-08-19T07:33:52;26.10;74.80
25906;DHT22;13713;52.552;13.204;2022-08-19T07:36:23;26.10;75.40
25906;DHT22;13713;52.552;13.204;2022-08-19T07:38:50;26.00;75.70
25906;DHT22;13713;52.552;13.204;2022-08-19T07:41:22;26.00;74.50
25906;DHT22;13713;52.552;13.204;2022-08-19T07:43:49;26.10;75.10
25906;DHT22;13713;52.552;13.204;2022-08-19T07:46:16;26.10;75.00
25906;DHT22;13713;52.552;13.204;2022-08-19T07:48:43;26.10;74.70
25906;DHT22;13713;52.552;13.204;2022-08-19T07:51:13;26.10;75.10
25906;DHT22;13713;52.552;13.204;2022-08-19T07:53:39;26.10;75.00
25906;DHT22;13713;52.552;13.204;2022-08-19T07:56:05;26.10;75.60
25906;DHT22;13713;52.552;13.204;2022-08-19T07:58:33;26.00;76.30
25906;DHT22;13713;52.552;13.204;2022-08-19T08:01:00;26.00;76.20
25906;DHT22;13713;52.552;13.204;2022-08-19T08:03:27;26.00;76.20
25906;DHT22;13713;52.552;13.204;2022-08-19T08:06:14;26.00;76.50
25906;DHT22;13713;52.552;13.204;2022-08-19T08:09:00;26.00;75.80
25906;DHT22;13713;52.552;13.204;2022-08-19T08:11:45;26.00;75.50
25906;DHT22;13713;52.552;13.204;2022-08-19T08:14:18;26.00;76.10
25906;DHT22;13713;52.552;13.204;2022-08-19T08:16:44;26.00;75.70
25906;DHT22;13713;52.552;13.204;2022-08-19T08:19:12;26.00;76.10
25906;DHT22;13713;52.552;13.204;2022-08-19T08:21:40;26.00;76.60
25906;DHT22;13713;52.552;13.204;2022-08-19T08:24:06;26.00;76.70
25906;DHT22;13713;52.552;13.204;2022-08-19T08:26:32;26.00;76.70
25906;DHT22;13713;52.552;13.204;2022-08-19T08:28:58;26.00;76.40
25906;DHT22;13713;52.552;13.204;2022-08-19T08:31:24;26.00;77.30
25906;DHT22;13713;52.552;13.204;2022-08-19T08:33:49;26.00;76.90
25906;DHT22;13713;52.552;13.204;2022-08-19T08:36:15;26.10;76.40
25906;DHT22;13713;52.552;13.204;2022-08-19T08:38:42;26.10;76.40
25906;DHT22;13713;52.552;13.204;2022-08-19T08:41:35;26.10;76.60
25906;DHT22;13713;52.552;13.204;2022-08-19T08:44:03;26.10;76.70
25906;DHT22;13713;52.552;13.204;2022-08-19T08:46:43;26.10;76.40
25906;DHT22;13713;52.552;13.204;2022-08-19T08:52:11;26.10;76.70
25906;DHT22;13713;52.552;13.204;2022-08-19T08:54:47;26.10;76.50
25906;DHT22;13713;52.552;13.204;2022-08-19T08:59:54;26.00;76.80
25906;DHT22;13713;52.552;13.204;2022-08-19T09:02:22;26.00;78.20
25906;DHT22;13713;52.552;13.204;2022-08-19T09:04:48;26.00;77.40
25906;DHT22;13713;52.552;13.204;2022-08-19T09:07:50;26.00;77.10
25906;DHT22;13713;52.552;13.204;2022-08-19T09:10:29;26.00;77.30
25906;DHT22;13713;52.552;13.204;2022-08-19T09:16:10;26.00;77.10
25906;DHT22;13713;52.552;13.204;2022-08-19T09:18:47;26.00;78.00
25906;DHT22;13713;52.552;13.204;2022-08-19T09:21:15;25.90;78.10
25906;DHT22;13713;52.552;13.204;2022-08-19T09:23:41;26.00;77.50
25906;DHT22;13713;52.552;13.204;2022-08-19T09:26:12;26.00;77.70
25906;DHT22;13713;52.552;13.204;2022-08-19T09:28:40;26.00;77.30
25906;DHT22;13713;52.552;13.204;2022-08-19T09:31:17;26.00;77.00
25906;DHT22;13713;52.552;13.204;2022-08-19T09:33:43;26.00;77.70
25906;DHT22;13713;52.552;13.204;2022-08-19T09:36:11;26.00;77.80
25906;DHT22;13713;52.552;13.204;2022-08-19T09:38:38;25.90;78.20
25906;DHT22;13713;52.552;13.204;2022-08-19T09:41:09;26.00;78.40
25906;DHT22;13713;52.552;13.204;2022-08-19T09:43:40;25.90;78.50
25906;DHT22;13713;52.552;13.204;2022-08-19T09:46:07;26.00;78.10
25906;DHT22;13713;52.552;13.204;2022-08-19T09:48:39;26.00;78.90
25906;DHT22;13713;52.552;13.204;2022-08-19T09:51:09;26.00;78.60
25906;DHT22;13713;52.552;13.204;2022-08-19T09:53:36;26.00;79.00
25906;DHT22;13713;52.552;13.204;2022-08-19T09:56:03;26.00;78.50
25906;DHT22;13713;52.552;13.204;2022-08-19T09:58:29;26.00;79.10
25906;DHT22;13713;52.552;13.204;2022-08-19T10:00:57;26.00;79.00
25906;DHT22;13713;52.552;13.204;2022-08-19T10:03:24;26.00;79.50
25906;DHT22;13713;52.552;13.204;2022-08-19T10:05:50;26.00;79.00
25906;DHT22;13713;52.552;13.204;2022-08-19T10:08:22;26.00;79.20
25906;DHT22;13713;52.552;13.204;2022-08-19T10:10:49;26.00;79.10
25906;DHT22;13713;52.552;13.204;2022-08-19T10:13:18;26.00;79.50
25906;DHT22;13713;52.552;13.204;2022-08-19T10:15:45;26.00;79.70
25906;DHT22;13713;52.552;13.204;2022-08-19T10:18:11;26.00;79.80
25906;DHT22;13713;52.552;13.204;2022-08-19T10:20:37;26.00;80.20
25906;DHT22;13713;52.552;13.204;2022-08-19T10:23:03;26.00;80.40
25906;DHT22;13713;52.552;13.204;2022-08-19T10:25:29;26.00;80.40
25906;DHT22;13713;52.552;13.204;2022-08-19T10:27:55;26.00;80.30
25906;DHT22;13713;52.552;13.204;2022-08-19T10:30:22;26.00;80.00
25906;DHT22;13713;52.552;13.204;2022-08-19T10:32:47;26.00;81.30
25906;DHT22;13713;52.552;13.204;2022-08-19T10:35:13;26.00;84.90
25906;DHT22;13713;52.552;13.204;2022-08-19T10:37:40;26.10;86.50
25906;DHT22;13713;52.552;13.204;2022-08-19T10:40:07;26.10;81.90
25906;DHT22;13713;52.552;13.204;2022-08-19T10:42:34;26.10;85.20
25906;DHT22;13713;52.552;13.204;2022-08-19T10:45:00;26.10;83.80
25906;DHT22;13713;52.552;13.204;2022-08-19T10:47:26;26.10;83.70
25906;DHT22;13713;52.552;13.204;2022-08-19T10:49:53;26.10;81.40
25906;DHT22;13713;52.552;13.204;2022-08-19T10:52:39;26.10;81.30
25906;DHT22;13713;52.552;13.204;2022-08-19T10:55:07;26.10;81.30
25906;DHT22;13713;52.552;13.204;2022-08-19T10:57:51;26.10;80.70
25906;DHT22;13713;52.552;13.204;2022-08-19T11:00:19;26.10;80.50
25906;DHT22;13713;52.552;13.204;2022-08-19T11:02:45;26.20;90.10
25906;DHT22;13713;52.552;13.204;2022-08-19T11:05:12;26.20;84.10
25906;DHT22;13713;52.552;13.204;2022-08-19T11:07:38;26.20;81.60
25906;DHT22;13713;52.552;13.204;2022-08-19T11:10:05;26.20;82.80
25906;DHT22;13713;52.552;13.204;2022-08-19T11:12:31;26.20;82.60
25906;DHT22;13713;52.552;13.204;2022-08-19T11:14:58;26.10;81.10
25906;DHT22;13713;52.552;13.204;2022-08-19T11:17:24;26.20;80.70
25906;DHT22;13713;52.552;13.204;2022-08-19T11:19:49;26.20;80.60
25906;DHT22;13713;52.552;13.204;2022-08-19T11:22:15;26.20;81.00
25906;DHT22;13713;52.552;13.204;2022-08-19T11:24:42;26.10;80.20
25906;DHT22;13713;52.552;13.204;2022-08-19T11:27:09;26.20;79.70
25906;DHT22;13713;52.552;13.204;2022-08-19T11:29:38;26.20;79.70
25906;DHT22;13713;52.552;13.204;2022-08-19T11:32:07;26.20;84.30
25906;DHT22;13713;52.552;13.204;2022-08-19T11:34:34;26.20;83.30
25906;DHT22;13713;52.552;13.204;2022-08-19T11:37:01;26.20;82.00
25906;DHT22;13713;52.552;13.204;2022-08-19T11:39:30;26.30;82.80
25906;DHT22;13713;52.552;13.204;2022-08-19T11:42:00;26.30;81.70
25906;DHT22;13713;52.552;13.204;2022-08-19T11:44:28;26.20;80.50
25906;DHT22;13713;52.552;13.204;2022-08-19T11:46:55;26.20;85.10
25906;DHT22;13713;52.552;13.204;2022-08-19T11:49:21;26.30;80.50
25906;DHT22;13713;52.552;13.204;2022-08-19T11:51:48;26.30;78.90
25906;DHT22;13713;52.552;13.204;2022-08-19T11:54:16;26.30;78.60
25906;DHT22;13713;52.552;13.204;2022-08-19T11:56:43;26.30;78.90
25906;DHT22;13713;52.552;13.204;2022-08-19T11:59:09;26.30;78.60
25906;DHT22;13713;52.552;13.204;2022-08-19T12:01:36;26.40;78.60
25906;DHT22;13713;52.552;13.204;2022-08-19T12:04:02;26.40;78.40
25906;DHT22;13713;52.552;13.204;2022-08-19T12:06:31;26.50;78.00
25906;DHT22;13713;52.552;13.204;2022-08-19T12:09:00;26.50;77.70
25906;DHT22;13713;52.552;13.204;2022-08-19T12:11:26;26.50;77.60
25906;DHT22;13713;52.552;13.204;2022-08-19T12:13:52;26.50;77.70
25906;DHT22;13713;52.552;13.204;2022-08-19T12:16:22;26.50;77.20
25906;DHT22;13713;52.552;13.204;2022-08-19T12:18:49;26.50;77.00
25906;DHT22;13713;52.552;13.204;2022-08-19T12:21:19;26.60;76.70
25906;DHT22;13713;52.552;13.204;2022-08-19T12:23:48;26.60;76.30
25906;DHT22;13713;52.552;13.204;2022-08-19T12:26:15;26.60;76.10
25906;DHT22;13713;52.552;13.204;2022-08-19T12:28:41;26.60;76.00
25906;DHT22;13713;52.552;13.204;2022-08-19T12:31:07;26.60;75.30
25906;DHT22;13713;52.552;13.204;2022-08-19T12:33:33;26.60;75.40
25906;DHT22;13713;52.552;13.204;2022-08-19T12:36:04;26.60;75.90
25906;DHT22;13713;52.552;13.204;2022-08-19T12:38:31;26.60;75.40
25906;DHT22;13713;52.552;13.204;2022-08-19T12:40:58;26.60;75.60
25906;DHT22;13713;52.552;13.204;2022-08-19T12:43:24;26.60;75.40
25906;DHT22;13713;52.552;13.204;2022-08-19T12:45:49;26.60;75.20
25906;DHT22;13713;52.552;13.204;2022-08-19T12:48:15;26.60;75.00
25906;DHT22;13713;52.552;13.204;2022-08-19T12:50:42;26.70;75.00
25906;DHT22;13713;52.552;13.204;2022-08-19T12:53:08;26.60;74.70
25906;DHT22;13713;52.552;13.204;2022-08-19T12:55:34;26.70;74.60
25906;DHT22;13713;52.552;13.204;2022-08-19T12:57:59;26.70;74.50
25906;DHT22;13713;52.552;13.204;2022-08-19T13:00:27;26.60;74.40
25906;DHT22;13713;52.552;13.204;2022-08-19T13:02:53;26.70;74.60
25906;DHT22;13713;52.552;13.204;2022-08-19T13:05:22;26.70;74.40
25906;DHT22;13713;52.552;13.204;2022-08-19T13:07:48;26.70;75.00
25906;DHT22;13713;52.552;13.204;2022-08-19T13:10:17;26.70;74.50
25906;DHT22;13713;52.552;13.204;2022-08-19T13:12:45;26.70;75.20
25906;DHT22;13713;52.552;13.204;2022-08-19T13:15:12;26.80;75.10
25906;DHT22;13713;52.552;13.204;2022-08-19T13:17:39;26.80;75.20
25906;DHT22;13713;52.552;13.204;2022-08-19T13:20:07;26.80;74.30
25906;DHT22;13713;52.552;13.204;2022-08-19T13:22:33;26.80;74.70
25906;DHT22;13713;52.552;13.204;2022-08-19T13:25:01;26.70;74.80
25906;DHT22;13713;52.552;13.204;2022-08-19T13:27:26;26.80;74.50
25906;DHT22;13713;52.552;13.204;2022-08-19T13:29:52;26.80;75.70
25906;DHT22;13713;52.552;13.204;2022-08-19T13:32:36;26.90;76.00
25906;DHT22;13713;52.552;13.204;2022-08-19T13:35:21;26.90;75.00
25906;DHT22;13713;52.552;13.204;2022-08-19T13:37:46;26.90;75.20
25906;DHT22;13713;52.552;13.204;2022-08-19T13:40:16;26.90;75.60
25906;DHT22;13713;52.552;13.204;2022-08-19T13:42:48;26.90;75.40
25906;DHT22;13713;52.552;13.204;2022-08-19T13:45:20;27.00;75.50
25906;DHT22;13713;52.552;13.204;2022-08-19T13:47:47;27.00;75.30
25906;DHT22;13713;52.552;13.204;2022-08-19T13:50:18;27.30;78.80
25906;DHT22;13713;52.552;13.204;2022-08-19T13:52:44;27.60;78.40
25906;DHT22;13713;52.552;13.204;2022-08-19T13:55:11;27.80;77.80
25906;DHT22;13713;52.552;13.204;2022-08-19T13:57:37;27.80;77.30
25906;DHT22;13713;52.552;13.204;2022-08-19T14:00:13;27.90;77.80
25906;DHT22;13713;52.552;13.204;2022-08-19T14:02:39;28.10;78.20
25906;DHT22;13713;52.552;13.204;2022-08-19T14:05:08;28.20;78.20
25906;DHT22;13713;52.552;13.204;2022-08-19T14:07:34;28.20;78.10
25906;DHT22;13713;52.552;13.204;2022-08-19T14:09:59;28.20;78.20
25906;DHT22;13713;52.552;13.204;2022-08-19T14:12:25;28.30;79.40
25906;DHT22;13713;52.552;13.204;2022-08-19T14:14:51;28.30;78.80
25906;DHT22;13713;52.552;13.204;2022-08-19T14:17:16;28.30;79.60
25906;DHT22;13713;52.552;13.204;2022-08-19T14:19:42;28.40;80.00
25906;DHT22;13713;52.552;13.204;2022-08-19T14:22:09;28.30;79.70
25906;DHT22;13713;52.552;13.204;2022-08-19T14:24:36;28.40;80.20
25906;DHT22;13713;52.552;13.204;2022-08-19T14:27:02;28.40;80.60
25906;DHT22;13713;52.552;13.204;2022-08-19T14:29:28;28.40;80.60
25906;DHT22;13713;52.552;13.204;2022-08-19T14:31:55;28.50;80.80
25906;DHT22;13713;52.552;13.204;2022-08-19T14:34:25;28.40;80.70
25906;DHT22;13713;52.552;13.204;2022-08-19T14:36:51;28.50;81.90
25906;DHT22;13713;52.552;13.204;2022-08-19T14:39:17;28.50;81.70
25906;DHT22;13713;52.552;13.204;2022-08-19T14:41:43;28.50;81.30
25906;DHT22;13713;52.552;13.204;2022-08-19T14:44:08;28.60;80.80
25906;DHT22;13713;52.552;13.204;2022-08-19T14:46:38;28.60;79.90
25906;DHT22;13713;52.552;13.204;2022-08-19T14:49:04;28.50;79.60
25906;DHT22;13713;52.552;13.204;2022-08-19T14:51:30;28.50;79.30
25906;DHT22;13713;52.552;13.204;2022-08-19T14:53:56;28.60;79.20
25906;DHT22;13713;52.552;13.204;2022-08-19T14:56:25;28.60;78.70
25906;DHT22;13713;52.552;13.204;2022-08-19T14:58:51;28.50;78.20
25906;DHT22;13713;52.552;13.204;2022-08-19T15:01:18;28.60;77.90
25906;DHT22;13713;52.552;13.204;2022-08-19T15:03:46;28.60;77.30
25906;DHT22;13713;52.552;13.204;2022-08-19T15:06:12;28.50;77.10
25906;DHT22;13713;52.552;13.204;2022-08-19T15:08:39;28.50;76.70
25906;DHT22;13713;52.552;13.204;2022-08-19T15:11:13;28.50;76.60
25906;DHT22;13713;52.552;13.204;2022-08-19T15:13:40;28.50;76.40
25906;DHT22;13713;52.552;13.204;2022-08-19T15:16:07;28.50;76.20
25906;DHT22;13713;52.552;13.204;2022-08-19T15:18:32;28.50;76.10
25906;DHT22;13713;52.552;13.204;2022-08-19T15:20:59;28.50;76.00
25906;DHT22;13713;52.552;13.204;2022-08-19T15:23:25;28.50;76.00
25906;DHT22;13713;52.552;13.204;2022-08-19T15:25:51;28.50;75.70
25906;DHT22;13713;52.552;13.204;2022-08-19T15:28:26;28.50;75.40
25906;DHT22;13713;52.552;13.204;2022-08-19T15:30:52;28.50;75.30